createdAt,value
2019-06-27T00:01:16.502Z,71.80
2019-06-27T00:03:45.230Z,72.60
2019-06-27T00:06:13.848Z,73.40
2019-06-27T00:08:42.433Z,74.10
2019-06-27T00:11:11.244Z,74.40
2019-06-27T00:13:39.826Z,74.70
2019-06-27T00:16:08.461Z,74.80
2019-06-27T00:18:37.070Z,75.10
2019-06-27T00:21:05.718Z,75.10
2019-06-27T00:23:34.360Z,75.10
2019-06-27T00:26:03.014Z,75.60
2019-06-27T00:28:31.903Z,75.40
2019-06-27T00:31:00.559Z,75.50
2019-06-27T00:33:29.141Z,75.40
2019-06-27T00:35:57.725Z,75.30
2019-06-27T00:38:26.342Z,75.00
2019-06-27T00:40:54.936Z,75.70
2019-06-27T00:43:23.591Z,76.10
2019-06-27T00:45:52.194Z,76.90
2019-06-27T00:48:20.843Z,77.10
2019-06-27T00:50:49.474Z,77.00
2019-06-27T00:53:18.215Z,77.50
2019-06-27T00:55:46.796Z,78.60
2019-06-27T00:58:15.373Z,79.00
2019-06-27T01:00:44.064Z,80.60
2019-06-27T01:03:12.674Z,80.60
2019-06-27T01:05:41.255Z,81.00
2019-06-27T01:08:09.911Z,81.20
2019-06-27T01:10:38.679Z,81.50
2019-06-27T01:13:07.325Z,81.00
2019-06-27T01:15:36.034Z,80.60
2019-06-27T01:18:04.681Z,80.10
2019-06-27T01:20:33.260Z,79.50
2019-06-27T01:23:01.873Z,78.70
2019-06-27T01:25:30.435Z,78.00
2019-06-27T01:27:59.113Z,77.20
2019-06-27T01:30:27.829Z,77.00
2019-06-27T01:32:56.412Z,76.70
2019-06-27T01:35:25.057Z,77.80
2019-06-27T01:37:53.627Z,79.30
2019-06-27T01:40:22.279Z,80.50
2019-06-27T01:42:50.884Z,81.90
2019-06-27T01:45:26.998Z,82.10
2019-06-27T01:47:55.606Z,82.90
2019-06-27T01:50:24.367Z,82.50
2019-06-27T01:52:53.091Z,83.10
2019-06-27T01:55:22.766Z,82.80
2019-06-27T01:57:51.365Z,82.20
2019-06-27T02:00:20.620Z,82.50
2019-06-27T02:02:49.261Z,82.70
2019-06-27T02:05:18.019Z,82.60
2019-06-27T02:07:46.611Z,83.30
2019-06-27T02:10:15.910Z,83.80
2019-06-27T02:12:44.982Z,84.40
2019-06-27T02:15:15.537Z,85.00
2019-06-27T02:17:44.193Z,86.10
2019-06-27T02:20:13.352Z,84.60
2019-06-27T02:22:42.206Z,85.20
2019-06-27T02:25:11.550Z,85.50
2019-06-27T02:27:40.212Z,85.10
2019-06-27T02:30:10.537Z,85.10
2019-06-27T02:32:39.145Z,85.30
2019-06-27T02:35:07.968Z,85.60
2019-06-27T02:37:36.551Z,85.30
2019-06-27T02:40:08.588Z,85.20
2019-06-27T02:42:37.272Z,84.60
2019-06-27T02:45:07.787Z,84.20
2019-06-27T02:47:36.425Z,84.00
2019-06-27T02:50:07.330Z,83.80
2019-06-27T02:52:36.024Z,83.30
2019-06-27T02:55:05.821Z,82.60
2019-06-27T02:57:34.440Z,82.00
2019-06-27T03:00:03.409Z,81.40
2019-06-27T03:02:31.984Z,81.00
2019-06-27T03:05:00.615Z,80.40
2019-06-27T03:07:29.196Z,80.10
2019-06-27T03:09:57.811Z,80.10
2019-06-27T03:12:26.530Z,79.80
2019-06-27T03:14:55.104Z,79.90
2019-06-27T03:17:23.906Z,81.80
2019-06-27T03:19:52.481Z,81.50
2019-06-27T03:22:21.057Z,81.50
2019-06-27T03:24:49.640Z,82.00
2019-06-27T03:27:18.223Z,82.30
2019-06-27T03:29:46.946Z,81.90
2019-06-27T03:32:15.532Z,81.70
2019-06-27T03:34:44.117Z,82.80
2019-06-27T03:37:12.796Z,84.40
2019-06-27T03:39:41.362Z,86.20
2019-06-27T03:42:09.978Z,86.10
2019-06-27T03:44:38.640Z,86.60
2019-06-27T03:47:07.214Z,86.20
2019-06-27T03:49:35.888Z,87.00
2019-06-27T03:52:04.841Z,87.10
2019-06-27T03:54:33.526Z,88.10
2019-06-27T03:57:02.195Z,88.40
2019-06-27T03:59:30.762Z,88.80
2019-06-27T04:01:59.352Z,89.20
2019-06-27T04:04:28.044Z,89.20
2019-06-27T04:06:56.700Z,88.80
2019-06-27T04:09:25.325Z,88.80
2019-06-27T04:11:54.374Z,88.70
2019-06-27T04:14:23.031Z,88.80
2019-06-27T04:16:51.592Z,88.60
2019-06-27T04:19:20.178Z,88.10
2019-06-27T04:21:48.789Z,87.60
2019-06-27T04:24:17.370Z,86.80
2019-06-27T04:26:46.037Z,86.20
2019-06-27T04:29:31.767Z,85.40
2019-06-27T04:31:45.001Z,85.00
2019-06-27T04:34:13.591Z,85.30
2019-06-27T04:36:42.264Z,85.00
2019-06-27T04:39:10.955Z,85.20
2019-06-27T04:41:39.607Z,84.90
2019-06-27T04:44:08.187Z,84.30
2019-06-27T04:46:36.846Z,83.30
2019-06-27T04:49:05.433Z,82.90
2019-06-27T04:51:34.173Z,82.60
2019-06-27T04:54:02.784Z,82.40
2019-06-27T04:56:31.443Z,81.90
2019-06-27T04:59:09.492Z,81.90
2019-06-27T05:01:38.081Z,82.30
2019-06-27T05:04:06.744Z,82.50
2019-06-27T05:06:35.422Z,82.50
2019-06-27T05:09:04.622Z,82.40
2019-06-27T05:11:33.383Z,82.10
2019-06-27T05:14:02.023Z,81.90
2019-06-27T05:16:30.595Z,81.80
2019-06-27T05:18:59.190Z,81.70
2019-06-27T05:21:27.765Z,81.80
2019-06-27T05:23:56.729Z,81.70
2019-06-27T05:26:25.321Z,81.70
2019-06-27T05:28:53.898Z,81.40
2019-06-27T05:31:22.573Z,81.10
2019-06-27T05:33:51.180Z,80.70
2019-06-27T05:36:19.775Z,80.40
2019-06-27T05:38:48.342Z,80.20
2019-06-27T05:41:17.025Z,79.90
2019-06-27T05:43:45.562Z,79.70
2019-06-27T05:46:14.216Z,79.40
2019-06-27T05:48:42.801Z,79.30
2019-06-27T05:51:11.474Z,79.40
2019-06-27T05:53:40.192Z,79.20
2019-06-27T05:56:08.824Z,79.20
2019-06-27T05:58:37.437Z,79.20
2019-06-27T06:01:06.215Z,79.30
2019-06-27T06:03:34.853Z,79.20
2019-06-27T06:06:03.563Z,79.20
2019-06-27T06:08:32.651Z,79.10
2019-06-27T06:11:01.235Z,79.20
2019-06-27T06:13:29.834Z,79.30
2019-06-27T06:16:00.973Z,79.20
2019-06-27T06:18:28.830Z,79.30
2019-06-27T06:20:57.417Z,79.30
2019-06-27T06:23:26.014Z,79.30
2019-06-27T06:25:54.667Z,79.10
2019-06-27T06:28:23.377Z,79.50
2019-06-27T06:30:51.933Z,79.40
2019-06-27T06:33:20.758Z,79.60
2019-06-27T06:35:49.271Z,79.20
2019-06-27T06:38:18.011Z,79.00
2019-06-27T06:40:46.750Z,78.60
2019-06-27T06:43:15.314Z,78.30
2019-06-27T06:45:43.954Z,78.00
2019-06-27T06:48:12.570Z,77.90
2019-06-27T06:50:41.259Z,77.80
2019-06-27T06:53:09.924Z,77.70
2019-06-27T06:55:41.730Z,77.50
2019-06-27T06:58:08.824Z,77.40
2019-06-27T07:00:37.441Z,77.30
2019-06-27T07:03:06.123Z,77.30
2019-06-27T07:05:34.747Z,77.10
2019-06-27T07:08:03.322Z,77.00
2019-06-27T07:10:32.002Z,77.10
2019-06-27T07:13:00.564Z,77.60
2019-06-27T07:15:29.246Z,77.50
2019-06-27T07:17:57.910Z,77.10
2019-06-27T07:20:26.539Z,77.20
2019-06-27T07:22:55.344Z,77.40
2019-06-27T07:25:23.954Z,76.90
2019-06-27T07:27:52.550Z,77.50
2019-06-27T07:30:21.595Z,79.30
2019-06-27T07:32:50.227Z,79.80
2019-06-27T07:35:19.092Z,79.90
2019-06-27T07:37:47.826Z,79.80
2019-06-27T07:40:16.863Z,79.90
2019-06-27T07:42:45.436Z,80.30
2019-06-27T07:45:14.181Z,80.10
2019-06-27T07:47:42.904Z,79.60
2019-06-27T07:50:11.802Z,79.60
2019-06-27T07:52:40.493Z,80.00
2019-06-27T07:55:10.392Z,80.60
2019-06-27T07:57:39.074Z,80.40
2019-06-27T08:00:11.160Z,81.50
2019-06-27T08:02:39.866Z,82.40
2019-06-27T08:05:09.391Z,83.80
2019-06-27T08:07:38.969Z,84.20
2019-06-27T08:10:08.043Z,83.80
2019-06-27T08:12:36.800Z,83.10
2019-06-27T08:15:07.633Z,82.90
2019-06-27T08:17:36.244Z,82.40
2019-06-27T08:20:06.955Z,82.00
2019-06-27T08:22:35.613Z,82.50
2019-06-27T08:25:06.041Z,82.00
2019-06-27T08:27:34.689Z,82.00
2019-06-27T08:30:08.303Z,82.10
2019-06-27T08:32:35.337Z,81.10
2019-06-27T08:35:05.655Z,82.10
2019-06-27T08:37:34.665Z,82.10
2019-06-27T08:40:04.655Z,83.00
2019-06-27T08:42:33.208Z,82.20
2019-06-27T08:45:01.849Z,82.20
2019-06-27T08:47:30.411Z,81.80
2019-06-27T08:50:00.164Z,82.20
2019-06-27T08:52:28.933Z,82.70
2019-06-27T08:54:57.969Z,83.40
2019-06-27T08:57:26.630Z,83.50
2019-06-27T08:59:55.203Z,82.80
2019-06-27T09:02:23.845Z,82.80
2019-06-27T09:04:52.531Z,81.40
2019-06-27T09:07:21.162Z,81.00
2019-06-27T09:09:49.811Z,81.40
2019-06-27T09:12:18.423Z,81.10
2019-06-27T09:14:47.292Z,81.10
2019-06-27T09:17:16.185Z,81.20
2019-06-27T09:19:44.788Z,81.80
2019-06-27T09:22:13.379Z,81.70
2019-06-27T09:24:42.092Z,82.30
2019-06-27T09:27:10.780Z,81.60
2019-06-27T09:29:39.342Z,80.50
2019-06-27T09:32:20.950Z,79.80
2019-06-27T09:34:38.408Z,80.00
2019-06-27T09:37:07.181Z,78.10
2019-06-27T09:39:35.888Z,78.50
2019-06-27T09:42:04.594Z,79.30
2019-06-27T09:44:33.176Z,79.30
2019-06-27T09:47:02.003Z,78.70
2019-06-27T09:49:31.007Z,79.60
2019-06-27T09:51:59.617Z,79.70
2019-06-27T09:54:29.088Z,79.50
2019-06-27T09:56:57.760Z,79.60
2019-06-27T09:59:26.420Z,79.50
2019-06-27T10:01:54.994Z,78.60
2019-06-27T10:04:24.068Z,78.60
2019-06-27T10:06:52.677Z,78.20
2019-06-27T10:09:21.778Z,77.50
2019-06-27T10:11:54.332Z,77.30
2019-06-27T10:14:23.211Z,77.50
2019-06-27T10:16:51.911Z,77.10
2019-06-27T10:19:23.110Z,77.10
2019-06-27T10:21:51.967Z,76.90
2019-06-27T10:24:20.847Z,77.10
2019-06-27T10:26:49.415Z,75.90
2019-06-27T10:29:18.243Z,76.50
2019-06-27T10:31:47.596Z,75.00
2019-06-27T10:34:16.180Z,75.30
2019-06-27T10:36:44.933Z,75.10
2019-06-27T10:39:13.851Z,74.80
2019-06-27T10:41:42.460Z,73.30
2019-06-27T10:44:11.037Z,74.60
2019-06-27T10:46:39.639Z,74.30
2019-06-27T10:49:08.245Z,74.10
2019-06-27T10:51:36.827Z,73.20
2019-06-27T10:54:05.551Z,74.00
2019-06-27T10:56:38.772Z,73.40
2019-06-27T10:59:04.469Z,74.20
2019-06-27T11:01:33.119Z,74.00
2019-06-27T11:04:01.676Z,73.10
2019-06-27T11:06:30.328Z,72.20
2019-06-27T11:08:58.908Z,71.50
2019-06-27T11:11:27.478Z,72.40
2019-06-27T11:13:59.338Z,72.00
2019-06-27T11:16:26.568Z,72.20
2019-06-27T11:18:55.134Z,71.90
2019-06-27T11:21:23.723Z,72.20
2019-06-27T11:23:52.480Z,72.70
2019-06-27T11:26:21.069Z,72.60
2019-06-27T11:28:49.653Z,72.40
2019-06-27T11:31:18.260Z,72.60
2019-06-27T11:33:48.537Z,72.90
2019-06-27T11:36:17.149Z,72.90
2019-06-27T11:38:45.729Z,73.00
2019-06-27T11:41:14.325Z,72.40
2019-06-27T11:43:42.916Z,72.80
2019-06-27T11:46:11.514Z,72.80
2019-06-27T11:48:40.152Z,72.80
2019-06-27T11:51:08.729Z,70.90
2019-06-27T11:53:37.341Z,71.30
2019-06-27T11:56:05.989Z,72.40
2019-06-27T11:58:34.588Z,71.50
2019-06-27T12:01:03.633Z,71.40
2019-06-27T12:03:45.015Z,71.60
2019-06-27T12:06:02.656Z,71.90
2019-06-27T12:08:31.369Z,71.60
2019-06-27T12:11:00.087Z,71.40
2019-06-27T12:13:28.701Z,69.80
2019-06-27T12:15:57.315Z,67.80
2019-06-27T12:18:25.928Z,68.90
2019-06-27T12:20:54.504Z,66.20
2019-06-27T12:23:23.372Z,67.00
2019-06-27T12:25:52.339Z,63.90
2019-06-27T12:28:20.907Z,65.70
2019-06-27T12:30:49.493Z,66.60
2019-06-27T12:33:19.803Z,66.10
2019-06-27T12:35:48.373Z,64.70
2019-06-27T12:38:16.957Z,65.10
2019-06-27T12:40:45.626Z,64.40
2019-06-27T12:43:14.651Z,60.50
2019-06-27T12:45:43.311Z,63.10
2019-06-27T12:48:11.900Z,62.60
2019-06-27T12:50:40.546Z,62.50
2019-06-27T12:53:09.184Z,59.20
2019-06-27T12:55:37.786Z,59.50
2019-06-27T12:58:06.471Z,59.70
2019-06-27T13:00:36.189Z,60.90
2019-06-27T13:03:05.000Z,60.90
2019-06-27T13:05:33.570Z,60.00
2019-06-27T13:08:02.188Z,58.70
2019-06-27T13:10:35.825Z,58.50
2019-06-27T13:13:05.147Z,58.70
2019-06-27T13:15:34.766Z,57.90
2019-06-27T13:18:03.764Z,53.90
2019-06-27T13:20:32.347Z,54.60
2019-06-27T13:23:01.164Z,55.40
2019-06-27T13:25:33.180Z,54.20
2019-06-27T13:28:00.145Z,54.00
2019-06-27T13:30:28.697Z,54.20
2019-06-27T13:32:57.269Z,53.60
2019-06-27T13:35:25.842Z,53.10
2019-06-27T13:37:54.482Z,52.80
2019-06-27T13:40:23.278Z,52.80
2019-06-27T13:42:55.413Z,52.80
2019-06-27T13:45:22.158Z,53.60
2019-06-27T13:47:50.801Z,51.20
2019-06-27T13:50:19.397Z,51.80
2019-06-27T13:52:47.992Z,51.40
2019-06-27T13:55:17.522Z,51.20
2019-06-27T13:57:46.171Z,49.10
2019-06-27T14:00:17.634Z,47.60
2019-06-27T14:02:46.756Z,47.20
2019-06-27T14:05:15.495Z,48.10
2019-06-27T14:07:44.101Z,48.20
2019-06-27T14:10:13.095Z,47.10
2019-06-27T14:12:44.727Z,45.50
2019-06-27T14:15:12.101Z,44.20
2019-06-27T14:17:40.664Z,45.10
2019-06-27T14:20:09.452Z,43.80
2019-06-27T14:22:38.033Z,43.20
2019-06-27T14:25:06.953Z,43.50
2019-06-27T14:27:35.538Z,42.60
2019-06-27T14:30:08.244Z,43.00
2019-06-27T14:32:36.828Z,44.10
2019-06-27T14:35:15.207Z,44.50
2019-06-27T14:37:37.399Z,45.00
2019-06-27T14:40:09.840Z,44.80
2019-06-27T14:42:38.481Z,43.50
2019-06-27T14:45:07.491Z,45.10
2019-06-27T14:47:36.162Z,45.00
2019-06-27T14:50:05.933Z,44.70
2019-06-27T14:52:35.095Z,44.30
2019-06-27T14:55:06.067Z,43.80
2019-06-27T14:57:35.170Z,43.00
2019-06-27T15:00:06.427Z,44.30
2019-06-27T15:02:34.999Z,42.80
2019-06-27T15:05:04.922Z,42.30
2019-06-27T15:07:33.660Z,42.40
2019-06-27T15:10:02.722Z,39.40
2019-06-27T15:12:31.338Z,39.70
2019-06-27T15:14:59.915Z,40.10
2019-06-27T15:17:28.537Z,38.40
2019-06-27T15:19:59.361Z,37.00
2019-06-27T15:22:27.379Z,34.10
2019-06-27T15:24:56.293Z,35.80
2019-06-27T15:27:24.961Z,34.30
2019-06-27T15:29:53.517Z,33.90
2019-06-27T15:32:22.114Z,34.50
2019-06-27T15:34:50.661Z,34.70
2019-06-27T15:37:19.236Z,34.80
2019-06-27T15:39:47.892Z,34.70
2019-06-27T15:42:16.528Z,33.90
2019-06-27T15:44:45.197Z,33.40
2019-06-27T15:47:13.836Z,36.00
2019-06-27T15:49:42.404Z,36.50
2019-06-27T15:52:11.161Z,36.30
2019-06-27T15:54:39.728Z,36.30
2019-06-27T15:57:08.285Z,35.10
2019-06-27T15:59:36.945Z,35.70
2019-06-27T16:02:05.585Z,35.40
2019-06-27T16:04:34.787Z,37.00
2019-06-27T16:07:03.440Z,35.80
2019-06-27T16:09:32.073Z,35.50
2019-06-27T16:12:00.704Z,36.90
2019-06-27T16:14:29.297Z,36.10
2019-06-27T16:16:57.902Z,36.20
2019-06-27T16:19:26.579Z,33.60
2019-06-27T16:21:55.213Z,34.20
2019-06-27T16:24:23.782Z,33.60
2019-06-27T16:26:52.476Z,33.50
2019-06-27T16:29:21.959Z,34.20
2019-06-27T16:31:50.830Z,34.10
2019-06-27T16:34:22.601Z,30.40
2019-06-27T16:36:56.783Z,32.10
2019-06-27T16:39:28.782Z,30.00
2019-06-27T16:41:58.760Z,31.70
2019-06-27T16:44:27.631Z,33.80
2019-06-27T16:46:59.223Z,32.50
2019-06-27T16:49:28.019Z,31.80
2019-06-27T16:51:58.742Z,32.40
2019-06-27T16:54:29.341Z,32.50
2019-06-27T16:56:59.459Z,32.40
2019-06-27T16:59:30.483Z,32.00
2019-06-27T17:01:59.183Z,30.60
2019-06-27T17:04:27.778Z,32.00
2019-06-27T17:06:56.439Z,31.30
2019-06-27T17:09:25.053Z,31.50
2019-06-27T17:11:53.581Z,32.00
2019-06-27T17:14:22.263Z,31.30
2019-06-27T17:16:51.030Z,31.30
2019-06-27T17:19:19.596Z,30.30
2019-06-27T17:21:48.341Z,30.50
2019-06-27T17:24:16.895Z,31.50
2019-06-27T17:26:45.598Z,31.20
2019-06-27T17:29:14.432Z,31.00
2019-06-27T17:31:43.202Z,31.10
2019-06-27T17:34:14.065Z,30.70
2019-06-27T17:36:56.572Z,31.50
2019-06-27T17:39:14.295Z,30.90
2019-06-27T17:41:43.095Z,31.30
2019-06-27T17:44:11.673Z,31.20
2019-06-27T17:46:40.267Z,31.10
2019-06-27T17:49:08.937Z,31.70
2019-06-27T17:51:37.518Z,30.90
2019-06-27T17:54:06.159Z,31.10
2019-06-27T17:56:34.783Z,30.50
2019-06-27T17:59:03.571Z,31.00
2019-06-27T18:01:32.133Z,30.90
2019-06-27T18:04:01.016Z,31.30
2019-06-27T18:06:29.735Z,32.30
2019-06-27T18:08:58.379Z,32.00
2019-06-27T18:11:27.102Z,32.90
2019-06-27T18:13:55.827Z,33.20
2019-06-27T18:16:24.444Z,33.30
2019-06-27T18:18:53.158Z,32.70
2019-06-27T18:21:21.792Z,32.70
2019-06-27T18:23:50.396Z,32.90
2019-06-27T18:26:19.102Z,32.90
2019-06-27T18:28:47.667Z,34.10
2019-06-27T18:31:16.347Z,33.80
2019-06-27T18:33:45.108Z,33.60
2019-06-27T18:36:14.751Z,34.00
2019-06-27T18:38:43.409Z,33.70
2019-06-27T18:41:12.967Z,33.80
2019-06-27T18:43:41.919Z,34.30
2019-06-27T18:46:10.511Z,33.90
2019-06-27T18:48:39.149Z,34.60
2019-06-27T18:51:07.875Z,35.00
2019-06-27T18:53:36.768Z,35.50
2019-06-27T18:56:05.607Z,35.60
2019-06-27T18:58:34.241Z,35.50
2019-06-27T19:01:02.933Z,35.60
2019-06-27T19:03:31.507Z,36.40
2019-06-27T19:06:00.065Z,36.40
2019-06-27T19:08:28.659Z,36.10
2019-06-27T19:10:57.293Z,36.20
2019-06-27T19:13:25.947Z,36.10
2019-06-27T19:15:54.623Z,36.60
2019-06-27T19:18:41.149Z,37.20
2019-06-27T19:21:27.442Z,37.10
2019-06-27T19:24:00.740Z,37.50
2019-06-27T19:26:29.639Z,38.30
2019-06-27T19:28:58.716Z,38.50
2019-06-27T19:31:27.768Z,38.30
2019-06-27T19:33:56.643Z,38.60
2019-06-27T19:36:25.775Z,39.40
2019-06-27T19:38:54.752Z,39.50
2019-06-27T19:41:23.653Z,40.20
2019-06-27T19:43:55.693Z,40.80
2019-06-27T19:46:27.246Z,41.30
2019-06-27T19:48:55.815Z,42.00
2019-06-27T19:51:24.751Z,42.50
2019-06-27T19:53:53.498Z,42.90
2019-06-27T19:56:22.292Z,43.20
2019-06-27T19:58:51.254Z,43.70
2019-06-27T20:01:20.005Z,44.10
2019-06-27T20:03:48.827Z,44.40
2019-06-27T20:06:17.563Z,44.80
2019-06-27T20:08:46.328Z,45.00
2019-06-27T20:11:15.113Z,45.30
2019-06-27T20:13:43.844Z,45.30
2019-06-27T20:16:12.402Z,45.60
2019-06-27T20:18:41.595Z,45.50
2019-06-27T20:21:10.170Z,45.60
2019-06-27T20:23:38.823Z,45.60
2019-06-27T20:26:07.592Z,46.20
2019-06-27T20:28:36.326Z,46.40
2019-06-27T20:31:05.294Z,46.90
2019-06-27T20:33:34.361Z,47.20
2019-06-27T20:36:03.196Z,47.30
2019-06-27T20:38:35.199Z,47.60
2019-06-27T20:41:02.183Z,48.00
2019-06-27T20:43:30.838Z,48.40
2019-06-27T20:45:59.448Z,48.80
2019-06-27T20:48:28.088Z,48.90
2019-06-27T20:50:56.877Z,49.20
2019-06-27T20:53:25.517Z,49.50
2019-06-27T20:55:54.172Z,49.70
2019-06-27T20:58:22.850Z,50.20
2019-06-27T21:00:51.470Z,50.40
2019-06-27T21:03:20.038Z,50.70
2019-06-27T21:05:48.598Z,51.30
2019-06-27T21:08:17.215Z,51.40
2019-06-27T21:10:45.920Z,51.90
2019-06-27T21:13:14.507Z,52.30
2019-06-27T21:15:43.087Z,52.50
2019-06-27T21:18:11.681Z,53.00
2019-06-27T21:20:40.958Z,53.40
2019-06-27T21:23:09.597Z,53.60
2019-06-27T21:25:38.312Z,53.50
2019-06-27T21:28:06.943Z,53.70
2019-06-27T21:30:35.574Z,53.80
2019-06-27T21:33:04.335Z,53.60
2019-06-27T21:35:32.954Z,53.70
2019-06-27T21:38:01.603Z,53.80
2019-06-27T21:40:30.176Z,53.60
2019-06-27T21:42:58.768Z,54.20
2019-06-27T21:45:27.460Z,54.80
2019-06-27T21:47:56.254Z,55.50
2019-06-27T21:50:24.902Z,55.60
2019-06-27T21:52:53.478Z,55.50
2019-06-27T21:55:22.060Z,55.90
2019-06-27T21:57:50.678Z,56.20
2019-06-27T22:00:19.980Z,56.50
2019-06-27T22:02:48.610Z,56.70
2019-06-27T22:05:17.571Z,57.10
2019-06-27T22:07:46.275Z,58.30
2019-06-27T22:10:15.074Z,58.20
2019-06-27T22:12:43.678Z,58.30
2019-06-27T22:15:12.318Z,58.30
2019-06-27T22:17:41.034Z,58.50
2019-06-27T22:20:15.730Z,58.50
2019-06-27T22:22:40.648Z,58.70
2019-06-27T22:25:09.812Z,58.60
2019-06-27T22:27:38.421Z,58.60
2019-06-27T22:30:08.246Z,58.40
2019-06-27T22:32:36.830Z,57.90
2019-06-27T22:35:07.090Z,58.20
2019-06-27T22:37:35.011Z,58.30
2019-06-27T22:40:21.727Z,58.10
2019-06-27T22:43:07.883Z,58.30
2019-06-27T22:45:55.196Z,57.80
2019-06-27T22:48:23.166Z,57.70
2019-06-27T22:50:53.528Z,57.70
2019-06-27T22:53:38.805Z,57.60
2019-06-27T22:56:07.533Z,57.40
2019-06-27T22:58:36.100Z,57.70
2019-06-27T23:01:06.366Z,57.10
2019-06-27T23:03:35.201Z,57.40
2019-06-27T23:06:03.882Z,56.60
2019-06-27T23:08:32.452Z,56.30
2019-06-27T23:11:01.121Z,55.90
2019-06-27T23:13:29.730Z,55.90
2019-06-27T23:15:58.410Z,55.40
2019-06-27T23:18:27.145Z,56.50
2019-06-27T23:20:55.789Z,56.00
2019-06-27T23:23:25.327Z,55.70
2019-06-27T23:25:53.999Z,55.90
2019-06-27T23:28:22.827Z,55.70
2019-06-27T23:30:51.494Z,55.20
2019-06-27T23:33:20.111Z,55.00
2019-06-27T23:35:48.697Z,54.70
2019-06-27T23:38:17.380Z,54.70
2019-06-27T23:40:46.078Z,53.60
2019-06-27T23:43:14.672Z,54.40
2019-06-27T23:45:43.262Z,54.40
2019-06-27T23:48:11.936Z,54.50
2019-06-27T23:50:40.496Z,55.00
2019-06-27T23:53:09.150Z,55.30
2019-06-27T23:55:37.849Z,54.20
2019-06-27T23:58:06.420Z,54.50
